EAG5518 SBNF-SBCA
Flight info
| Callsign | EAG5518 |
|---|---|
| Flight time | 0h 46m |
| Altitude | 38000 |
| Route | EGDAK DCT ILBEK |
| Aircraft | A320/M-SDE3FGHIRWY/LB1 |
Departure
| Time | 2026-05-03 20:17 |
|---|---|
| Airport | Ministro Victor Konder International Airport (SBNF) |
Arrival
| Time | 2026-05-03 21:04 |
|---|---|
| Airport | Coronel Adalberto Mendes da Silva Airport (SBCA) |
| Time | Latitude | Longitude | Altitude | Speed | Heading |
|---|---|---|---|---|---|
| 2026-05-03 20:15 | -26.88005 | -48.65200 | 28 ft | 20 kts | 236° |
| 2026-05-03 20:15 | -26.88087 | -48.65335 | 29 ft | 22 kts | 236° |
| 2026-05-03 20:15 | -26.88176 | -48.65482 | 29 ft | 24 kts | 236° |
| 2026-05-03 20:15 | -26.88262 | -48.65622 | 31 ft | 21 kts | 235° |
| 2026-05-03 20:16 | -26.88326 | -48.65733 | 30 ft | 16 kts | 246° |
| 2026-05-03 20:16 | -26.88358 | -48.65800 | 30 ft | 3 kts | 172° |
| 2026-05-03 20:16 | -26.88355 | -48.65774 | 30 ft | 9 kts | 66° |
| 2026-05-03 20:16 | -26.88314 | -48.65706 | 30 ft | 20 kts | 55° |
| 2026-05-03 20:17 | -26.88039 | -48.65258 | 29 ft | 117 kts | 56° |
| 2026-05-03 20:17 | -26.87439 | -48.64278 | 193 ft | 174 kts | 55° |
| 2026-05-03 20:17 | -26.86737 | -48.63132 | 933 ft | 184 kts | 55° |
| 2026-05-03 20:17 | -26.85981 | -48.61900 | 1682 ft | 197 kts | 55° |
| 2026-05-03 20:18 | -26.85200 | -48.60626 | 2418 ft | 200 kts | 55° |
| 2026-05-03 20:18 | -26.84417 | -48.59350 | 3145 ft | 197 kts | 55° |
| 2026-05-03 20:18 | -26.83478 | -48.58208 | 3625 ft | 209 kts | 30° |
| 2026-05-03 20:18 | -26.82000 | -48.57862 | 3936 ft | 233 kts | 351° |
| 2026-05-03 20:19 | -26.80509 | -48.58655 | 4382 ft | 256 kts | 314° |
| 2026-05-03 20:19 | -26.79446 | -48.60308 | 5192 ft | 266 kts | 301° |
| 2026-05-03 20:19 | -26.78495 | -48.62132 | 6190 ft | 270 kts | 299° |
| 2026-05-03 20:19 | -26.77592 | -48.63955 | 7137 ft | 274 kts | 298° |
| 2026-05-03 20:20 | -26.76665 | -48.65840 | 8102 ft | 278 kts | 298° |
| 2026-05-03 20:20 | -26.75716 | -48.67745 | 9043 ft | 282 kts | 299° |
| 2026-05-03 20:20 | -26.74742 | -48.69675 | 9952 ft | 286 kts | 299° |
| 2026-05-03 20:20 | -26.73733 | -48.71657 | 10514 ft | 305 kts | 300° |
| 2026-05-03 20:21 | -26.72636 | -48.73797 | 10851 ft | 329 kts | 300° |
| 2026-05-03 20:21 | -26.71450 | -48.76100 | 11132 ft | 352 kts | 300° |
| 2026-05-03 20:21 | -26.70203 | -48.78520 | 11678 ft | 363 kts | 300° |
| 2026-05-03 20:21 | -26.68932 | -48.80977 | 12430 ft | 368 kts | 300° |
| 2026-05-03 20:22 | -26.67642 | -48.83474 | 13179 ft | 373 kts | 300° |
| 2026-05-03 20:22 | -26.66338 | -48.85998 | 13913 ft | 377 kts | 300° |
| 2026-05-03 20:22 | -26.65021 | -48.88546 | 14614 ft | 381 kts | 300° |
| 2026-05-03 20:22 | -26.63686 | -48.91126 | 15297 ft | 385 kts | 300° |
| 2026-05-03 20:23 | -26.62334 | -48.93733 | 15949 ft | 389 kts | 300° |
| 2026-05-03 20:23 | -26.60972 | -48.96353 | 16596 ft | 393 kts | 300° |
| 2026-05-03 20:23 | -26.59586 | -48.99013 | 17231 ft | 396 kts | 300° |
| 2026-05-03 20:23 | -26.58195 | -49.01678 | 17838 ft | 399 kts | 300° |
| 2026-05-03 20:24 | -26.56794 | -49.04370 | 18427 ft | 403 kts | 300° |
| 2026-05-03 20:24 | -26.55378 | -49.07105 | 18972 ft | 407 kts | 300° |
| 2026-05-03 20:24 | -26.53973 | -49.09823 | 19488 ft | 411 kts | 300° |
| 2026-05-03 20:24 | -26.52519 | -49.12633 | 20050 ft | 414 kts | 300° |
| 2026-05-03 20:25 | -26.51095 | -49.15381 | 20599 ft | 416 kts | 300° |
| 2026-05-03 20:25 | -26.49633 | -49.18192 | 21109 ft | 420 kts | 300° |
| 2026-05-03 20:25 | -26.48156 | -49.21016 | 21585 ft | 423 kts | 300° |
| 2026-05-03 20:25 | -26.46660 | -49.23864 | 22062 ft | 427 kts | 300° |
| 2026-05-03 20:26 | -26.45157 | -49.26725 | 22528 ft | 429 kts | 300° |
| 2026-05-03 20:26 | -26.43646 | -49.29611 | 22993 ft | 432 kts | 300° |
| 2026-05-03 20:26 | -26.42122 | -49.32524 | 23422 ft | 435 kts | 300° |
| 2026-05-03 20:26 | -26.40585 | -49.35462 | 23840 ft | 438 kts | 300° |
| 2026-05-03 20:27 | -26.39040 | -49.38412 | 24196 ft | 443 kts | 300° |
| 2026-05-03 20:27 | -26.37481 | -49.41384 | 24579 ft | 446 kts | 300° |
| 2026-05-03 20:27 | -26.35912 | -49.44376 | 24979 ft | 449 kts | 300° |
| 2026-05-03 20:27 | -26.34325 | -49.47404 | 25356 ft | 452 kts | 300° |
| 2026-05-03 20:28 | -26.32736 | -49.50430 | 25754 ft | 454 kts | 300° |
| 2026-05-03 20:28 | -26.31154 | -49.53448 | 26103 ft | 457 kts | 299° |
| 2026-05-03 20:28 | -26.29756 | -49.56691 | 26449 ft | 459 kts | 292° |
| 2026-05-03 20:28 | -26.28526 | -49.59940 | 26780 ft | 462 kts | 292° |
| 2026-05-03 20:29 | -26.27275 | -49.63235 | 27120 ft | 464 kts | 293° |
| 2026-05-03 20:29 | -26.26005 | -49.66557 | 27443 ft | 466 kts | 293° |
| 2026-05-03 20:29 | -26.24730 | -49.69880 | 27756 ft | 468 kts | 293° |
| 2026-05-03 20:29 | -26.23446 | -49.73219 | 28067 ft | 471 kts | 293° |
| 2026-05-03 20:30 | -26.22153 | -49.76578 | 28377 ft | 472 kts | 293° |
| 2026-05-03 20:30 | -26.20851 | -49.79958 | 28677 ft | 474 kts | 293° |
| 2026-05-03 20:30 | -26.19557 | -49.83316 | 29096 ft | 473 kts | 293° |
| 2026-05-03 20:30 | -26.18262 | -49.86683 | 29510 ft | 472 kts | 293° |
| 2026-05-03 20:31 | -26.16971 | -49.90041 | 29916 ft | 471 kts | 293° |
| 2026-05-03 20:31 | -26.15682 | -49.93390 | 30320 ft | 470 kts | 293° |
| 2026-05-03 20:31 | -26.14390 | -49.96744 | 30713 ft | 470 kts | 293° |
| 2026-05-03 20:31 | -26.13107 | -50.00072 | 31109 ft | 469 kts | 293° |
| 2026-05-03 20:32 | -26.11819 | -50.03407 | 31488 ft | 468 kts | 293° |
| 2026-05-03 20:32 | -26.10528 | -50.06743 | 31881 ft | 467 kts | 293° |
| 2026-05-03 20:32 | -26.09263 | -50.10008 | 32264 ft | 466 kts | 293° |
| 2026-05-03 20:32 | -26.07980 | -50.13315 | 32637 ft | 465 kts | 293° |
| 2026-05-03 20:33 | -26.06688 | -50.16651 | 32998 ft | 465 kts | 293° |
| 2026-05-03 20:33 | -26.05408 | -50.19953 | 33370 ft | 464 kts | 293° |
| 2026-05-03 20:33 | -26.04149 | -50.23206 | 33726 ft | 463 kts | 293° |
| 2026-05-03 20:33 | -26.02877 | -50.26485 | 34073 ft | 462 kts | 293° |
| 2026-05-03 20:34 | -26.01600 | -50.29768 | 34423 ft | 462 kts | 293° |
| 2026-05-03 20:34 | -26.00321 | -50.33051 | 34779 ft | 461 kts | 293° |
| 2026-05-03 20:34 | -25.99045 | -50.36325 | 35122 ft | 460 kts | 293° |
| 2026-05-03 20:34 | -25.97777 | -50.39580 | 35463 ft | 459 kts | 293° |
| 2026-05-03 20:35 | -25.96504 | -50.42844 | 35767 ft | 459 kts | 293° |
| 2026-05-03 20:35 | -25.95239 | -50.46090 | 36080 ft | 458 kts | 293° |
| 2026-05-03 20:35 | -25.93970 | -50.49336 | 36370 ft | 457 kts | 293° |
| 2026-05-03 20:35 | -25.92701 | -50.52576 | 36631 ft | 457 kts | 293° |
| 2026-05-03 20:36 | -25.91431 | -50.55811 | 36882 ft | 457 kts | 293° |
| 2026-05-03 20:36 | -25.90161 | -50.59050 | 37129 ft | 457 kts | 293° |
| 2026-05-03 20:36 | -25.88889 | -50.62291 | 37368 ft | 457 kts | 293° |
| 2026-05-03 20:36 | -25.87619 | -50.65525 | 37592 ft | 457 kts | 293° |
| 2026-05-03 20:37 | -25.86349 | -50.68762 | 37833 ft | 457 kts | 293° |
| 2026-05-03 20:37 | -25.85505 | -50.70914 | 37940 ft | 458 kts | 293° |
| 2026-05-03 20:37 | -25.83801 | -50.75256 | 38011 ft | 458 kts | 293° |
| 2026-05-03 20:38 | -25.81268 | -50.81699 | 38009 ft | 458 kts | 293° |
| 2026-05-03 20:38 | -25.78720 | -50.88184 | 38009 ft | 458 kts | 293° |
| 2026-05-03 20:39 | -25.76158 | -50.94665 | 38009 ft | 459 kts | 294° |
| 2026-05-03 20:39 | -25.73578 | -51.01166 | 38010 ft | 460 kts | 294° |
| 2026-05-03 20:40 | -25.71432 | -51.06576 | 38016 ft | 461 kts | 294° |
| 2026-05-03 20:40 | -25.68851 | -51.13092 | 38018 ft | 461 kts | 294° |
| 2026-05-03 20:41 | -25.66262 | -51.19608 | 38019 ft | 461 kts | 294° |
| 2026-05-03 20:41 | -25.63686 | -51.26094 | 38017 ft | 461 kts | 294° |
| 2026-05-03 20:42 | -25.61106 | -51.32591 | 38013 ft | 461 kts | 294° |
| 2026-05-03 20:42 | -25.58538 | -51.39097 | 38016 ft | 461 kts | 290° |
| 2026-05-03 20:43 | -25.56635 | -51.45868 | 38017 ft | 461 kts | 287° |
| 2026-05-03 20:43 | -25.54770 | -51.52674 | 38020 ft | 461 kts | 287° |
| 2026-05-03 20:44 | -25.52914 | -51.59473 | 38023 ft | 461 kts | 287° |
| 2026-05-03 20:44 | -25.51059 | -51.66267 | 38028 ft | 461 kts | 287° |
| 2026-05-03 20:45 | -25.49183 | -51.73059 | 38029 ft | 461 kts | 287° |
| 2026-05-03 20:45 | -25.47305 | -51.79851 | 38031 ft | 460 kts | 287° |
| 2026-05-03 20:46 | -25.45443 | -51.86588 | 38028 ft | 460 kts | 287° |
| 2026-05-03 20:46 | -25.44509 | -51.89973 | 37898 ft | 460 kts | 287° |
| 2026-05-03 20:46 | -25.43571 | -51.93352 | 37649 ft | 459 kts | 287° |
| 2026-05-03 20:46 | -25.42630 | -51.96736 | 37399 ft | 459 kts | 287° |
| 2026-05-03 20:47 | -25.41697 | -52.00095 | 37149 ft | 458 kts | 287° |
| 2026-05-03 20:47 | -25.40763 | -52.03463 | 36889 ft | 456 kts | 287° |
| 2026-05-03 20:47 | -25.39830 | -52.06820 | 36392 ft | 456 kts | 287° |
| 2026-05-03 20:47 | -25.38901 | -52.10168 | 35525 ft | 455 kts | 287° |
| 2026-05-03 20:48 | -25.37969 | -52.13524 | 34594 ft | 459 kts | 287° |
| 2026-05-03 20:48 | -25.37025 | -52.16911 | 33704 ft | 462 kts | 287° |
| 2026-05-03 20:48 | -25.36075 | -52.20302 | 32702 ft | 465 kts | 287° |
| 2026-05-03 20:48 | -25.35109 | -52.23748 | 31600 ft | 471 kts | 287° |
| 2026-05-03 20:49 | -25.34137 | -52.27218 | 30505 ft | 475 kts | 287° |
| 2026-05-03 20:49 | -25.33154 | -52.30727 | 29311 ft | 479 kts | 287° |
| 2026-05-03 20:49 | -25.32172 | -52.34233 | 28038 ft | 477 kts | 287° |
| 2026-05-03 20:49 | -25.31194 | -52.37726 | 26773 ft | 473 kts | 287° |
| 2026-05-03 20:50 | -25.30227 | -52.41183 | 25519 ft | 468 kts | 287° |
| 2026-05-03 20:50 | -25.29268 | -52.44597 | 24276 ft | 463 kts | 287° |
| 2026-05-03 20:50 | -25.28325 | -52.47943 | 23055 ft | 450 kts | 287° |
| 2026-05-03 20:50 | -25.27414 | -52.51154 | 21893 ft | 438 kts | 287° |
| 2026-05-03 20:51 | -25.26513 | -52.54337 | 20971 ft | 432 kts | 287° |
| 2026-05-03 20:51 | -25.25623 | -52.57490 | 20090 ft | 427 kts | 287° |
| 2026-05-03 20:51 | -25.24747 | -52.60600 | 19232 ft | 422 kts | 287° |
| 2026-05-03 20:51 | -25.23875 | -52.63704 | 18394 ft | 423 kts | 287° |
| 2026-05-03 20:52 | -25.23002 | -52.66795 | 17576 ft | 421 kts | 287° |
| 2026-05-03 20:52 | -25.22132 | -52.69877 | 16765 ft | 419 kts | 287° |
| 2026-05-03 20:52 | -25.21265 | -52.72937 | 15974 ft | 417 kts | 287° |
| 2026-05-03 20:52 | -25.20400 | -52.75978 | 15219 ft | 414 kts | 287° |
| 2026-05-03 20:53 | -25.19538 | -52.79004 | 14479 ft | 410 kts | 287° |
| 2026-05-03 20:53 | -25.18684 | -52.82001 | 13766 ft | 406 kts | 287° |
| 2026-05-03 20:53 | -25.17840 | -52.84961 | 13067 ft | 402 kts | 287° |
| 2026-05-03 20:53 | -25.17006 | -52.87886 | 12382 ft | 397 kts | 287° |
| 2026-05-03 20:54 | -25.16183 | -52.90774 | 11691 ft | 393 kts | 287° |
| 2026-05-03 20:54 | -25.14597 | -52.96341 | 11138 ft | 363 kts | 287° |
| 2026-05-03 20:54 | -25.13860 | -52.98929 | 11003 ft | 345 kts | 287° |
| 2026-05-03 20:55 | -25.13155 | -53.01398 | 10877 ft | 330 kts | 287° |
| 2026-05-03 20:55 | -25.12477 | -53.03772 | 10751 ft | 317 kts | 287° |
| 2026-05-03 20:55 | -25.11826 | -53.06043 | 10625 ft | 305 kts | 287° |
| 2026-05-03 20:55 | -25.11197 | -53.08236 | 10433 ft | 296 kts | 287° |
| 2026-05-03 20:56 | -25.10581 | -53.10391 | 10186 ft | 292 kts | 287° |
| 2026-05-03 20:56 | -25.09971 | -53.12517 | 9937 ft | 290 kts | 287° |
| 2026-05-03 20:56 | -25.09363 | -53.14632 | 9817 ft | 289 kts | 287° |
| 2026-05-03 20:56 | -25.08756 | -53.16743 | 9691 ft | 289 kts | 287° |
| 2026-05-03 20:57 | -25.08150 | -53.18853 | 9483 ft | 290 kts | 287° |
| 2026-05-03 20:57 | -25.07533 | -53.21001 | 8962 ft | 293 kts | 287° |
| 2026-05-03 20:57 | -25.06926 | -53.23110 | 8429 ft | 286 kts | 287° |
| 2026-05-03 20:57 | -25.06327 | -53.25199 | 7712 ft | 283 kts | 286° |
| 2026-05-03 20:58 | -25.06058 | -53.27320 | 6995 ft | 279 kts | 266° |
| 2026-05-03 20:58 | -25.06474 | -53.29375 | 6311 ft | 276 kts | 246° |
| 2026-05-03 20:58 | -25.07498 | -53.31137 | 5609 ft | 273 kts | 227° |
| 2026-05-03 20:58 | -25.08837 | -53.32614 | 5018 ft | 266 kts | 225° |
| 2026-05-03 20:59 | -25.10075 | -53.33967 | 4817 ft | 235 kts | 225° |
| 2026-05-03 20:59 | -25.11063 | -53.35280 | 4670 ft | 213 kts | 245° |
| 2026-05-03 20:59 | -25.11325 | -53.36793 | 4593 ft | 191 kts | 276° |
| 2026-05-03 20:59 | -25.10920 | -53.38079 | 4516 ft | 166 kts | 303° |
| 2026-05-03 21:00 | -25.10186 | -53.38962 | 4434 ft | 150 kts | 315° |
| 2026-05-03 21:00 | -25.09705 | -53.39487 | 4371 ft | 146 kts | 314° |
| 2026-05-03 21:00 | -25.08762 | -53.40525 | 4287 ft | 142 kts | 314° |
| 2026-05-03 21:00 | -25.08067 | -53.41291 | 4221 ft | 141 kts | 314° |
| 2026-05-03 21:01 | -25.07374 | -53.42055 | 4151 ft | 140 kts | 314° |
| 2026-05-03 21:01 | -25.06683 | -53.42814 | 4084 ft | 140 kts | 314° |
| 2026-05-03 21:01 | -25.05990 | -53.43577 | 3948 ft | 141 kts | 314° |
| 2026-05-03 21:01 | -25.05299 | -53.44336 | 3738 ft | 140 kts | 314° |
| 2026-05-03 21:02 | -25.04612 | -53.45093 | 3536 ft | 139 kts | 314° |
| 2026-05-03 21:02 | -25.03924 | -53.45850 | 3342 ft | 139 kts | 314° |
| 2026-05-03 21:02 | -25.03238 | -53.46602 | 3145 ft | 138 kts | 314° |
| 2026-05-03 21:02 | -25.02557 | -53.47345 | 2949 ft | 138 kts | 315° |
| 2026-05-03 21:03 | -25.01878 | -53.48084 | 2786 ft | 138 kts | 315° |
| 2026-05-03 21:03 | -25.01197 | -53.48829 | 2639 ft | 138 kts | 315° |
| 2026-05-03 21:03 | -25.00524 | -53.49579 | 2500 ft | 137 kts | 314° |
| 2026-05-03 21:03 | -24.99926 | -53.50239 | 2492 ft | 88 kts | 315° |
| 2026-05-03 21:04 | -24.99651 | -53.50535 | 2495 ft | 39 kts | 316° |
| 2026-05-03 21:04 | -24.99542 | -53.50651 | 2498 ft | 9 kts | 316° |
| 2026-05-03 21:04 | -24.99498 | -53.50682 | 2496 ft | 6 kts | 341° |
| 2026-05-03 21:04 | -24.99480 | -53.50697 | 2499 ft | 1 kts | 255° |
| 2026-05-03 21:05 | -24.99508 | -53.50687 | 2498 ft | 8 kts | 132° |
| 2026-05-03 21:05 | -24.99554 | -53.50639 | 2498 ft | 12 kts | 136° |
| 2026-05-03 21:05 | -24.99612 | -53.50577 | 2494 ft | 11 kts | 136° |
| 2026-05-03 21:05 | -24.99673 | -53.50509 | 2497 ft | 17 kts | 134° |
| 2026-05-03 21:06 | -24.99765 | -53.50407 | 2495 ft | 21 kts | 135° |
| 2026-05-03 21:06 | -24.99871 | -53.50292 | 2490 ft | 18 kts | 135° |
| 2026-05-03 21:06 | -24.99941 | -53.50215 | 2491 ft | 12 kts | 135° |
| 2026-05-03 21:06 | -24.99989 | -53.50181 | 2490 ft | 8 kts | 178° |
| 2026-05-03 21:07 | -25.00024 | -53.50207 | 2489 ft | 3 kts | 223° |
| 2026-05-03 21:07 | -25.00041 | -53.50225 | 2489 ft | 4 kts | 223° |
| 2026-05-03 21:07 | -25.00059 | -53.50243 | 2489 ft | 3 kts | 223° |
| 2026-05-03 21:07 | -25.00074 | -53.50261 | 2489 ft | 3 kts | 227° |
| 2026-05-03 21:08 | -25.00097 | -53.50287 | 2489 ft | 5 kts | 227° |
| 2026-05-03 21:08 | -25.00119 | -53.50313 | 2488 ft | 4 kts | 225° |
| 2026-05-03 21:08 | -25.00135 | -53.50330 | 2489 ft | 2 kts | 224° |
| 2026-05-03 21:08 | -25.00140 | -53.50335 | 2488 ft | 0 kts | 224° |